Time;durP1;ratioP1;P1;durP2;ratioP2;P2;SDS_P1;SDS_P2;PMS_P1;PMS_P2;Temp;Humidity;BMP_temperature;BMP_pressure;BME280_temperature;BME280_humidity;BME280_pressure;Samples;Min_cycle;Max_cycle;Signal;HPM_P1;HPM_P2
2022/08/09 00:00:51;;;;;;;;;;;;;;;17.13;47.32;100624.06;4985085;28;1141;-58
2022/08/09 00:03:17;;;;;;;;;;;;;;;17.14;47.36;100615.53;4992478;28;1061;-58
2022/08/09 00:05:42;;;;;;;;;;;;;;;17.16;47.64;100607.00;4980380;28;1164;-57
2022/08/09 00:08:09;;;;;;;;;;;;;;;17.19;47.29;100617.41;4996804;28;829;-58
2022/08/09 00:10:35;;;;;;;;;;;;;;;17.14;47.58;100625.66;4983784;28;1077;-59
2022/08/09 00:13:00;;;;;;;;;;;;;;;17.08;47.72;100622.97;4996814;28;2375;-54
2022/08/09 00:15:26;;;;;;;;;;;;;;;17.09;47.58;100618.28;4990339;28;1042;-57
2022/08/09 00:17:51;;;;;;;;;;;;;;;17.12;47.58;100611.41;4995990;28;1985;-57
2022/08/09 00:20:17;;;;;;;;;;;;;;;17.13;47.54;100615.81;4994841;28;928;-57
2022/08/09 00:22:42;;;;;;;;;;;;;;;17.18;47.53;100615.75;4993725;28;1081;-58
2022/08/09 00:25:08;;;;;;;;;;;;;;;17.15;47.40;100610.84;4993170;28;1007;-56
2022/08/09 00:27:33;;;;;;;;;;;;;;;17.17;47.53;100616.91;4988271;28;1035;-58
2022/08/09 00:29:59;;;;;;;;;;;;;;;17.12;47.59;100623.22;4991406;28;1181;-58
2022/08/09 00:32:24;;;;;;;;;;;;;;;17.15;47.50;100610.84;4989508;28;927;-58
2022/08/09 00:34:50;;;;;;;;;;;;;;;17.12;47.54;100616.91;4994869;28;837;-58
2022/08/09 00:37:15;;;;;;;;;;;;;;;17.14;47.37;100620.19;4997136;28;1997;-58
2022/08/09 00:39:41;;;;;;;;;;;;;;;17.13;47.38;100615.81;4993708;28;1372;-58
2022/08/09 00:42:06;;;;;;;;;;;;;;;17.15;47.45;100606.16;4994795;28;1030;-58
2022/08/09 00:44:32;;;;;;;;;;;;;;;17.07;47.43;100618.56;4992047;28;2503;-58
2022/08/09 00:46:57;;;;;;;;;;;;;;;17.10;47.48;100623.50;4992678;28;1220;-57
2022/08/09 00:49:22;;;;;;;;;;;;;;;17.13;47.41;100618.56;4982028;28;991;-58
2022/08/09 00:51:48;;;;;;;;;;;;;;;17.09;47.54;100612.78;4989031;28;1169;-57
2022/08/09 00:54:13;;;;;;;;;;;;;;;17.12;47.46;100612.22;4995391;28;1342;-59
2022/08/09 00:56:39;;;;;;;;;;;;;;;17.10;47.71;100606.19;4991621;28;1911;-58
2022/08/09 00:59:05;;;;;;;;;;;;;;;17.09;47.40;100623.78;4992345;28;1153;-59
2022/08/09 01:01:31;;;;;;;;;;;;;;;17.10;47.61;100617.19;4990959;28;983;-58
2022/08/09 01:04:06;;;;;;;;;;;;;;;17.08;47.43;100611.97;4992252;28;1156;-58
2022/08/09 01:06:52;;;;;;;;;;;;;;;17.15;47.58;100614.41;4989028;28;1101;-58
2022/08/09 01:09:26;;;;;;;;;;;;;;;17.10;47.37;100607.00;4958504;28;1088;-58
2022/08/09 01:11:57;;;;;;;;;;;;;;;17.15;47.31;100605.34;4987650;28;1027;-59
2022/08/09 01:14:23;;;;;;;;;;;;;;;17.07;47.70;100602.09;4985838;28;1733;-58
2022/08/09 01:16:50;;;;;;;;;;;;;;;17.19;47.41;100606.44;4993979;28;1981;-58
2022/08/09 01:19:38;;;;;;;;;;;;;;;17.06;47.46;100603.19;5002728;28;1066;-59
2022/08/09 01:22:07;;;;;;;;;;;;;;;17.02;47.79;100596.59;4979742;28;1168;-58
2022/08/09 01:24:53;;;;;;;;;;;;;;;17.10;47.57;100593.28;4986187;28;1167;-58
2022/08/09 01:27:18;;;;;;;;;;;;;;;17.13;47.56;100591.91;4982613;28;971;-58
2022/08/09 01:29:48;;;;;;;;;;;;;;;17.10;47.60;100581.47;4985762;28;1220;-58
2022/08/09 01:32:14;;;;;;;;;;;;;;;17.08;47.62;100579.00;4984826;28;1007;-58
2022/08/09 01:34:40;;;;;;;;;;;;;;;17.11;47.47;100577.63;4990912;28;1050;-58
2022/08/09 01:37:07;;;;;;;;;;;;;;;17.10;47.42;100581.47;4993276;28;1910;-58
2022/08/09 01:39:34;;;;;;;;;;;;;;;17.07;47.38;100582.84;4985744;28;1046;-58
2022/08/09 01:42:00;;;;;;;;;;;;;;;17.07;47.38;100582.84;5011214;28;994;-58
2022/08/09 01:44:25;;;;;;;;;;;;;;;17.15;47.31;100573.19;5010586;28;2559;-58
2022/08/09 01:46:51;;;;;;;;;;;;;;;17.14;47.33;100579.81;4991254;28;1267;-58
2022/08/09 01:49:17;;;;;;;;;;;;;;;17.09;47.63;100571.56;4980710;28;1113;-58
2022/08/09 01:51:43;;;;;;;;;;;;;;;17.06;47.49;100567.47;4985011;28;1193;-58
2022/08/09 01:54:08;;;;;;;;;;;;;;;17.10;47.41;100565.78;5001346;28;1208;-58
2022/08/09 01:56:33;;;;;;;;;;;;;;;17.11;47.40;100577.63;4982660;28;1981;-58
2022/08/09 01:59:00;;;;;;;;;;;;;;;17.08;47.29;100584.50;4967486;28;1113;-58
2022/08/09 02:01:26;;;;;;;;;;;;;;;17.13;47.18;100580.09;4969519;28;1050;-58
2022/08/09 02:03:51;;;;;;;;;;;;;;;17.09;47.07;100575.13;4995991;28;994;-57
2022/08/09 02:06:17;;;;;;;;;;;;;;;17.04;47.56;100572.44;4975209;28;920;-58
2022/08/09 02:08:42;;;;;;;;;;;;;;;17.10;47.32;100565.78;4994017;28;1010;-58
2022/08/09 02:11:08;;;;;;;;;;;;;;;17.08;47.16;100567.19;5003898;28;1089;-58
2022/08/09 02:13:33;;;;;;;;;;;;;;;17.04;47.49;100577.94;4964558;28;2331;-58
2022/08/09 02:15:59;;;;;;;;;;;;;;;17.06;47.19;100572.16;5000420;28;1053;-57
2022/08/09 02:18:25;;;;;;;;;;;;;;;17.06;47.20;100575.72;4972372;28;1914;-55
2022/08/09 02:20:56;;;;;;;;;;;;;;;17.03;47.24;100570.78;4985130;28;1042;-55
2022/08/09 02:23:29;;;;;;;;;;;;;;;16.99;47.50;100577.94;4979464;28;1007;-55
2022/08/09 02:25:56;;;;;;;;;;;;;;;17.10;47.35;100574.03;5011413;28;1232;-55
2022/08/09 02:28:22;;;;;;;;;;;;;;;17.00;47.40;100568.59;4998327;28;1026;-57
2022/08/09 02:30:48;;;;;;;;;;;;;;;17.06;47.42;100559.22;4967799;28;1070;-55
2022/08/09 02:33:16;;;;;;;;;;;;;;;17.08;47.16;100573.50;5006134;28;1065;-55
2022/08/09 02:35:41;;;;;;;;;;;;;;;17.06;47.48;100575.72;4979279;28;991;-56
2022/08/09 02:38:07;;;;;;;;;;;;;;;17.06;47.17;100570.22;4974356;28;1966;-57
2022/08/09 02:40:32;;;;;;;;;;;;;;;17.07;47.27;100574.63;5000585;28;1109;-57
2022/08/09 02:42:58;;;;;;;;;;;;;;;17.04;47.31;100571.59;4989755;28;2319;-54
2022/08/09 02:45:28;;;;;;;;;;;;;;;17.06;47.30;100567.47;4989114;28;1140;-57
2022/08/09 02:47:54;;;;;;;;;;;;;;;17.06;47.41;100572.97;4969129;28;1002;-57
2022/08/09 02:50:24;;;;;;;;;;;;;;;17.13;46.99;100580.09;4965598;28;1168;-56
2022/08/09 02:52:51;;;;;;;;;;;;;;;17.05;47.24;100579.56;4994390;28;952;-57
2022/08/09 02:55:16;;;;;;;;;;;;;;;17.09;47.19;100597.13;4989469;28;1082;-57
2022/08/09 02:57:41;;;;;;;;;;;;;;;17.18;47.00;100604.78;5007281;28;1902;-57
2022/08/09 03:00:09;;;;;;;;;;;;;;;17.02;47.55;100610.34;4986080;28;978;-58
2022/08/09 03:02:35;;;;;;;;;;;;;;;16.98;47.52;100602.94;4998005;28;892;-58
2022/08/09 03:05:00;;;;;;;;;;;;;;;17.09;47.29;100608.09;5012013;28;1085;-58
2022/08/09 03:07:25;;;;;;;;;;;;;;;17.04;47.05;100621.88;5012295;28;1093;-58
2022/08/09 03:09:51;;;;;;;;;;;;;;;17.02;47.27;100618.56;4995610;28;1753;-58
2022/08/09 03:12:16;;;;;;;;;;;;;;;17.95;48.14;100620.88;4995981;28;1019;-57
2022/08/09 03:14:42;;;;;;;;;;;;;;;17.43;48.94;100623.06;4986050;28;1880;-57
2022/08/09 03:17:08;;;;;;;;;;;;;;;17.34;48.64;100633.84;4993479;28;1967;-56
2022/08/09 03:19:33;;;;;;;;;;;;;;;17.25;48.42;100633.59;4997100;28;999;-58
2022/08/09 03:21:59;;;;;;;;;;;;;;;17.30;47.73;100631.94;5004309;28;928;-58
2022/08/09 03:24:24;;;;;;;;;;;;;;;17.15;48.11;100643.81;5010389;28;1054;-58
2022/08/09 03:26:50;;;;;;;;;;;;;;;17.18;47.80;100638.59;4994107;28;1228;-54
2022/08/09 03:29:15;;;;;;;;;;;;;;;17.16;47.56;100640.78;4987355;28;999;-57
2022/08/09 03:31:41;;;;;;;;;;;;;;;17.19;47.22;100631.16;4994665;28;1173;-56
2022/08/09 03:34:06;;;;;;;;;;;;;;;17.23;47.42;100635.00;5005279;28;1104;-56
2022/08/09 03:36:32;;;;;;;;;;;;;;;17.19;47.15;100628.41;4993057;28;1906;-58
2022/08/09 03:38:57;;;;;;;;;;;;;;;17.13;47.13;100632.28;4997229;28;1084;-55
2022/08/09 03:41:23;;;;;;;;;;;;;;;17.12;47.44;100639.69;4991061;28;1117;-56
2022/08/09 03:43:48;;;;;;;;;;;;;;;17.15;47.19;100633.63;4985019;28;1847;-57
2022/08/09 03:46:14;;;;;;;;;;;;;;;17.17;47.18;100631.44;4988386;28;1199;-57
2022/08/09 03:48:39;;;;;;;;;;;;;;;17.08;47.37;100628.47;4997097;28;1082;-56
2022/08/09 03:51:07;;;;;;;;;;;;;;;17.03;47.53;100635.91;4993020;28;983;-56
2022/08/09 03:53:36;;;;;;;;;;;;;;;17.08;47.34;100636.69;4983876;28;1067;-56
2022/08/09 03:56:01;;;;;;;;;;;;;;;17.08;47.31;100622.97;4983986;28;1037;-58
2022/08/09 03:58:27;;;;;;;;;;;;;;;17.20;48.73;100630.88;5010013;28;1980;-56
2022/08/09 04:00:52;;;;;;;;;;;;;;;17.13;48.43;100630.34;4989829;28;998;-56
2022/08/09 04:03:18;;;;;;;;;;;;;;;17.11;48.06;100621.59;5010878;28;1150;-58
2022/08/09 04:05:43;;;;;;;;;;;;;;;17.13;47.93;100635.03;4994596;28;1176;-55
2022/08/09 04:08:08;;;;;;;;;;;;;;;17.13;47.84;100635.03;4996162;28;1133;-54
2022/08/09 04:10:34;;;;;;;;;;;;;;;17.19;47.65;100634.72;4992081;28;848;-55
2022/08/09 04:12:59;;;;;;;;;;;;;;;17.09;47.75;100630.09;4992270;28;2292;-54
2022/08/09 04:15:25;;;;;;;;;;;;;;;17.15;47.32;100628.13;4995537;28;2131;-56
2022/08/09 04:17:50;;;;;;;;;;;;;;;17.24;48.22;100628.41;4995876;28;2196;-55
2022/08/09 04:20:16;;;;;;;;;;;;;;;17.18;48.14;100622.09;4993388;28;1921;-54
2022/08/09 04:22:42;;;;;;;;;;;;;;;17.18;47.76;100627.59;4993497;28;2178;-54
2022/08/09 04:25:08;;;;;;;;;;;;;;;17.14;47.66;100636.66;4995495;28;1788;-55
2022/08/09 04:27:34;;;;;;;;;;;;;;;17.14;47.89;100631.16;4993602;28;1966;-56
2022/08/09 04:30:00;;;;;;;;;;;;;;;17.14;47.80;100637.50;4991363;28;1943;-57
2022/08/09 04:32:26;;;;;;;;;;;;;;;17.08;47.64;100638.59;4991929;28;2091;-55
2022/08/09 04:34:51;;;;;;;;;;;;;;;17.15;47.46;100630.06;4995748;28;1889;-54
2022/08/09 04:37:16;;;;;;;;;;;;;;;17.09;47.74;100641.06;4989334;28;1977;-55
2022/08/09 04:39:42;;;;;;;;;;;;;;;17.09;47.51;100626.53;4993390;28;1381;-54
2022/08/09 04:42:07;;;;;;;;;;;;;;;17.12;47.64;100633.38;4989883;28;1145;-52
2022/08/09 04:44:33;;;;;;;;;;;;;;;17.12;47.67;100636.13;4997708;28;1227;-55
2022/08/09 04:46:58;;;;;;;;;;;;;;;17.05;47.73;100626.25;4985868;28;1018;-55
2022/08/09 04:49:24;;;;;;;;;;;;;;;17.18;47.63;100635.84;4994505;28;951;-55
2022/08/09 04:51:49;;;;;;;;;;;;;;;17.21;48.09;100631.72;4991431;28;1015;-54
2022/08/09 04:54:15;;;;;;;;;;;;;;;17.47;49.33;100634.34;4993003;28;999;-48
2022/08/09 04:56:40;;;;;;;;;;;;;;;17.51;49.92;100633.47;4983939;28;1910;-54
2022/08/09 04:59:05;;;;;;;;;;;;;;;17.57;49.96;100643.34;4983746;28;967;-53
2022/08/09 05:01:31;;;;;;;;;;;;;;;17.66;50.15;100632.56;4990227;28;963;-54
2022/08/09 05:03:56;;;;;;;;;;;;;;;15.20;56.54;100642.59;4996259;28;2257;-54
2022/08/09 05:06:22;;;;;;;;;;;;;;;16.26;52.35;100642.31;4991366;28;1106;-53
2022/08/09 05:08:47;;;;;;;;;;;;;;;16.78;50.02;100640.31;4994390;28;1007;-52
2022/08/09 05:11:13;;;;;;;;;;;;;;;16.90;49.25;100637.28;4988045;28;1007;-53
2022/08/09 05:13:39;;;;;;;;;;;;;;;17.01;48.89;100643.59;4992864;28;1332;-54
2022/08/09 05:16:06;;;;;;;;;;;;;;;17.02;48.42;100642.50;4988525;28;1317;-51
2022/08/09 05:18:32;;;;;;;;;;;;;;;17.05;48.61;100645.47;4996900;28;1989;-51
2022/08/09 05:20:58;;;;;;;;;;;;;;;16.99;48.53;100641.13;4984334;28;1109;-52
2022/08/09 05:23:23;;;;;;;;;;;;;;;17.03;48.20;100636.72;4982919;28;1220;-53
2022/08/09 05:25:49;;;;;;;;;;;;;;;17.04;48.12;100641.13;4991836;28;1010;-53
2022/08/09 05:28:14;;;;;;;;;;;;;;;17.14;48.02;100639.41;4993613;28;1378;-52
2022/08/09 05:30:40;;;;;;;;;;;;;;;17.10;48.14;100639.97;4995297;28;1073;-53
2022/08/09 05:33:05;;;;;;;;;;;;;;;17.04;48.03;100649.34;4980849;28;1201;-50
2022/08/09 05:35:30;;;;;;;;;;;;;;;17.07;47.93;100643.28;4995876;28;1949;-49
2022/08/09 05:37:56;;;;;;;;;;;;;;;17.08;48.01;100644.09;4986093;28;1977;-53
2022/08/09 05:40:21;;;;;;;;;;;;;;;17.01;48.43;100641.69;4995140;28;1329;-47
2022/08/09 05:42:47;;;;;;;;;;;;;;;17.16;47.71;100646.28;4992422;28;1173;-52
2022/08/09 05:45:13;;;;;;;;;;;;;;;17.17;47.84;100650.69;4991232;28;1053;-52
2022/08/09 05:47:38;;;;;;;;;;;;;;;17.98;47.50;100655.22;4977948;28;1084;-47
2022/08/09 05:50:04;;;;;;;;;;;;;;;18.40;46.97;100660.13;4992714;28;1363;-49
2022/08/09 05:52:29;;;;;;;;;;;;;;;18.12;48.35;100646.03;4993292;28;1387;-54
2022/08/09 05:54:55;;;;;;;;;;;;;;;18.04;49.01;100648.59;4996944;28;1264;-51
2022/08/09 05:57:20;;;;;;;;;;;;;;;17.99;49.84;100646.66;4997834;28;1906;-50
2022/08/09 05:59:45;;;;;;;;;;;;;;;17.99;50.21;100663.19;4999557;28;1388;-50
2022/08/09 06:02:11;;;;;;;;;;;;;;;17.89;50.69;100653.06;4999952;28;1113;-52
2022/08/09 06:04:36;;;;;;;;;;;;;;;17.86;51.24;100659.13;4996263;28;1919;-54
2022/08/09 06:07:02;;;;;;;;;;;;;;;17.84;51.68;100663.25;4995646;28;1058;-53
2022/08/09 06:09:28;;;;;;;;;;;;;;;17.81;52.29;100661.06;4990660;28;1007;-52
2022/08/09 06:11:53;;;;;;;;;;;;;;;17.82;52.59;100663.53;4996485;28;995;-52
2022/08/09 06:14:19;;;;;;;;;;;;;;;17.76;52.88;100665.50;4999817;28;1109;-52
2022/08/09 06:16:44;;;;;;;;;;;;;;;17.74;53.27;100658.63;4999955;28;2045;-52
2022/08/09 06:19:10;;;;;;;;;;;;;;;17.79;53.48;100670.44;4999858;28;1101;-50
2022/08/09 06:21:35;;;;;;;;;;;;;;;17.76;53.62;100664.69;4999380;28;987;-49
2022/08/09 06:24:01;;;;;;;;;;;;;;;17.72;53.95;100664.41;4999659;28;1126;-49
2022/08/09 06:26:26;;;;;;;;;;;;;;;17.72;54.12;100667.16;4999900;28;1003;-52
2022/08/09 06:28:52;;;;;;;;;;;;;;;17.72;54.31;100675.41;4991769;28;1169;-49
2022/08/09 06:31:18;;;;;;;;;;;;;;;17.70;54.59;100671.34;4997404;28;1125;-48
2022/08/09 06:33:43;;;;;;;;;;;;;;;17.72;54.55;100678.16;4998900;28;1037;-53
2022/08/09 06:36:09;;;;;;;;;;;;;;;17.70;54.97;100672.16;4998856;28;2093;-50
2022/08/09 06:38:34;;;;;;;;;;;;;;;17.67;55.27;100675.47;4999670;28;1977;-50
2022/08/09 06:41:00;;;;;;;;;;;;;;;17.68;55.27;100677.09;4993342;28;1220;-48
2022/08/09 06:43:25;;;;;;;;;;;;;;;17.68;55.38;100673.53;4998978;28;924;-54
2022/08/09 06:45:50;;;;;;;;;;;;;;;17.64;55.57;100683.44;4999062;28;975;-47
2022/08/09 06:48:16;;;;;;;;;;;;;;;17.69;55.27;100676.00;4997659;28;1058;-52
2022/08/09 06:50:41;;;;;;;;;;;;;;;17.60;55.73;100673.03;4999574;28;1365;-53
2022/08/09 06:53:07;;;;;;;;;;;;;;;17.64;55.63;100681.50;4999389;28;1058;-48
2022/08/09 06:55:33;;;;;;;;;;;;;;;17.66;55.68;100687.56;4999330;28;1085;-52
2022/08/09 06:57:58;;;;;;;;;;;;;;;17.62;55.96;100679.03;4998911;28;1930;-49
2022/08/09 07:00:24;;;;;;;;;;;;;;;17.65;55.72;100679.59;4987107;28;1054;-51
2022/08/09 07:02:50;;;;;;;;;;;;;;;17.59;56.15;100671.38;4993234;28;1006;-53
2022/08/09 07:05:15;;;;;;;;;;;;;;;17.60;56.10;100674.97;4991719;28;1894;-55
2022/08/09 07:07:41;;;;;;;;;;;;;;;17.60;56.10;100678.53;4999594;28;947;-52
2022/08/09 07:10:06;;;;;;;;;;;;;;;17.63;56.04;100679.88;4998447;28;1010;-52
2022/08/09 07:12:32;;;;;;;;;;;;;;;17.60;56.36;100677.72;4999142;28;1062;-53
2022/08/09 07:14:57;;;;;;;;;;;;;;;17.61;56.13;100669.19;4998917;28;963;-52
2022/08/09 07:17:23;;;;;;;;;;;;;;;17.55;56.26;100667.53;4998736;28;1906;-53
2022/08/09 07:19:49;;;;;;;;;;;;;;;17.57;56.39;100670.84;4998676;28;1319;-52
2022/08/09 07:22:14;;;;;;;;;;;;;;;17.67;55.98;100672.72;4992864;28;975;-51
2022/08/09 07:24:40;;;;;;;;;;;;;;;17.57;56.12;100667.25;4991907;28;999;-51
2022/08/09 07:27:06;;;;;;;;;;;;;;;17.57;56.26;100668.09;4998825;28;1177;-51
2022/08/09 07:29:31;;;;;;;;;;;;;;;17.64;56.21;100667.75;4987439;28;1188;-51
2022/08/09 07:31:58;;;;;;;;;;;;;;;17.61;56.15;100673.84;4998430;28;964;-51
2022/08/09 07:34:23;;;;;;;;;;;;;;;17.58;56.27;100668.91;4997863;28;1832;-50
2022/08/09 07:36:49;;;;;;;;;;;;;;;17.60;56.25;100670.28;4998397;28;1922;-52
2022/08/09 07:39:14;;;;;;;;;;;;;;;17.60;56.21;100661.22;4981968;28;1223;-50
2022/08/09 07:41:40;;;;;;;;;;;;;;;17.58;56.44;100663.41;4990527;28;1054;-49
2022/08/09 07:44:05;;;;;;;;;;;;;;;17.60;56.43;100669.47;4994650;28;1081;-48
2022/08/09 07:46:31;;;;;;;;;;;;;;;17.62;56.44;100673.56;4986432;28;1026;-54
2022/08/09 07:48:56;;;;;;;;;;;;;;;17.58;56.50;100669.72;4987918;28;1145;-52
2022/08/09 07:51:22;;;;;;;;;;;;;;;17.61;56.17;100673.84;4990250;28;1125;-51
2022/08/09 07:53:51;;;;;;;;;;;;;;;17.63;56.55;100668.88;4997947;28;1165;-52
2022/08/09 07:56:16;;;;;;;;;;;;;;;17.59;56.61;100671.38;4989120;28;1145;-54
2022/08/09 07:58:42;;;;;;;;;;;;;;;17.61;56.50;100669.19;4997858;28;1969;-50
2022/08/09 08:01:07;;;;;;;;;;;;;;;17.60;56.63;100661.22;4994634;28;1364;-55
2022/08/09 08:03:33;;;;;;;;;;;;;;;17.68;56.18;100671.59;4995774;28;1277;-49
2022/08/09 08:05:59;;;;;;;;;;;;;;;17.59;56.46;100657.63;4991150;28;1800;-54
2022/08/09 08:08:25;;;;;;;;;;;;;;;17.59;56.66;100654.88;4994826;28;1328;-54
2022/08/09 08:10:50;;;;;;;;;;;;;;;17.66;56.44;100657.31;4995414;28;1333;-52
2022/08/09 08:13:16;;;;;;;;;;;;;;;17.62;56.57;100659.81;4997573;28;1240;-51
2022/08/09 08:15:41;;;;;;;;;;;;;;;17.59;56.53;100654.06;4992072;28;1364;-55
2022/08/09 08:18:06;;;;;;;;;;;;;;;17.67;56.58;100660.88;4996744;28;1993;-52
2022/08/09 08:20:32;;;;;;;;;;;;;;;17.62;56.54;100659.81;4997873;28;1145;-52
2022/08/09 08:22:58;;;;;;;;;;;;;;;17.63;56.56;100644.16;4995936;28;1416;-51
2022/08/09 08:25:23;;;;;;;;;;;;;;;17.62;56.38;100656.25;4993535;28;1146;-53
2022/08/09 08:27:48;;;;;;;;;;;;;;;17.64;56.49;100645.75;4996377;28;932;-52
2022/08/09 08:30:17;;;;;;;;;;;;;;;17.66;56.66;100656.50;4985897;28;1062;-49
2022/08/09 08:32:42;;;;;;;;;;;;;;;17.60;56.81;100644.72;4986664;28;1181;-51
2022/08/09 08:35:08;;;;;;;;;;;;;;;17.70;56.51;100650.16;4996142;28;2109;-51
2022/08/09 08:37:34;;;;;;;;;;;;;;;17.66;56.74;100642.75;4983982;28;1906;-51
2022/08/09 08:39:59;;;;;;;;;;;;;;;17.71;56.51;100650.97;4996382;28;1208;-49
2022/08/09 08:42:25;;;;;;;;;;;;;;;17.71;56.44;100656.47;4993705;28;989;-52
2022/08/09 08:44:57;;;;;;;;;;;;;;;17.69;56.56;100654.00;4995579;28;1125;-53
2022/08/09 08:47:24;;;;;;;;;;;;;;;17.72;56.65;100653.41;4996301;28;1019;-52
2022/08/09 08:49:49;;;;;;;;;;;;;;;17.69;56.89;100650.44;4997639;28;1364;-51
2022/08/09 08:52:19;;;;;;;;;;;;;;;17.74;56.55;100656.72;4990544;28;1362;-50
2022/08/09 08:54:44;;;;;;;;;;;;;;;17.71;56.83;100646.31;4985284;28;1177;-53
2022/08/09 08:57:10;;;;;;;;;;;;;;;17.70;57.04;100652.09;4997242;28;1910;-53
2022/08/09 08:59:35;;;;;;;;;;;;;;;17.73;56.95;100644.06;5010500;28;1038;-53
2022/08/09 09:02:01;;;;;;;;;;;;;;;17.73;56.98;100648.75;4995305;28;1054;-51
2022/08/09 09:04:28;;;;;;;;;;;;;;;17.74;56.92;100651.22;4996916;28;1804;-51
2022/08/09 09:06:55;;;;;;;;;;;;;;;17.76;56.68;100645.44;4996831;28;987;-52
2022/08/09 09:09:21;;;;;;;;;;;;;;;17.78;56.89;100641.28;4996715;28;1176;-52
2022/08/09 09:11:46;;;;;;;;;;;;;;;17.79;56.61;100644.84;5011042;28;1182;-52
2022/08/09 09:14:12;;;;;;;;;;;;;;;17.76;56.93;100640.75;5010188;28;1472;-54
2022/08/09 09:16:38;;;;;;;;;;;;;;;17.74;56.87;100631.97;5005212;28;1192;-52
2022/08/09 09:19:04;;;;;;;;;;;;;;;17.78;56.70;100645.97;4993458;28;1906;-51
2022/08/09 09:21:30;;;;;;;;;;;;;;;17.74;57.11;100639.38;4996671;28;1003;-53
2022/08/09 09:23:55;;;;;;;;;;;;;;;17.78;56.80;100637.72;4995270;28;868;-54
2022/08/09 09:26:21;;;;;;;;;;;;;;;17.77;56.94;100625.91;4993999;28;1281;-52
2022/08/09 09:28:47;;;;;;;;;;;;;;;17.76;56.88;100637.19;4996533;28;1026;-53
2022/08/09 09:31:18;;;;;;;;;;;;;;;17.77;56.92;100636.91;4995970;28;979;-53
2022/08/09 09:33:44;;;;;;;;;;;;;;;17.80;57.03;100638.25;4996585;28;1049;-51
2022/08/09 09:36:11;;;;;;;;;;;;;;;17.77;56.93;100623.16;4984478;28;2727;-51
2022/08/09 09:38:40;;;;;;;;;;;;;;;17.77;56.87;100611.34;4984687;28;1972;-53
2022/08/09 09:41:06;;;;;;;;;;;;;;;17.78;56.86;100611.03;4995053;28;1169;-51
2022/08/09 09:43:31;;;;;;;;;;;;;;;17.83;56.88;100620.38;4995710;28;1156;-52
2022/08/09 09:45:56;;;;;;;;;;;;;;;17.81;57.07;100623.41;4995745;28;1291;-54
2022/08/09 09:48:22;;;;;;;;;;;;;;;17.83;57.04;100628.63;4984035;28;1197;-54
2022/08/09 09:50:48;;;;;;;;;;;;;;;17.83;56.70;100609.38;4982428;28;1050;-53
2022/08/09 09:53:15;;;;;;;;;;;;;;;17.82;56.93;100597.53;4979059;28;1161;-49
2022/08/09 09:55:56;;;;;;;;;;;;;;;17.84;56.79;100611.00;4996017;28;1204;-50
2022/08/09 09:58:22;;;;;;;;;;;;;;;17.83;56.99;100621.19;4995691;28;1910;-51
2022/08/09 10:00:57;;;;;;;;;;;;;;;17.86;56.65;100609.59;4988071;28;1319;-49
2022/08/09 10:03:38;;;;;;;;;;;;;;;17.85;56.98;100607.13;4982705;28;1117;-50
2022/08/09 10:06:04;;;;;;;;;;;;;;;17.88;56.78;100590.06;4990140;28;2637;-51
2022/08/09 10:08:29;;;;;;;;;;;;;;;17.91;56.89;100606.03;4996505;28;1010;-51
2022/08/09 10:10:54;;;;;;;;;;;;;;;17.90;56.91;100596.09;4990694;28;999;-52
2022/08/09 10:13:20;;;;;;;;;;;;;;;17.90;56.93;100598.84;5004496;28;1010;-50
2022/08/09 10:15:47;;;;;;;;;;;;;;;17.93;56.83;100598.31;4987194;28;1216;-50
2022/08/09 10:18:12;;;;;;;;;;;;;;;17.94;56.75;100575.19;4994954;28;1910;-52
2022/08/09 10:20:38;;;;;;;;;;;;;;;17.92;56.75;100597.50;4991690;28;1008;-50
2022/08/09 10:23:13;;;;;;;;;;;;;;;17.94;56.93;100606.28;4993762;28;1023;-48
2022/08/09 10:25:38;;;;;;;;;;;;;;;17.92;56.99;100602.16;4991222;28;1316;-51
2022/08/09 10:28:04;;;;;;;;;;;;;;;17.98;57.00;100600.19;4990548;28;1077;-51
2022/08/09 10:30:29;;;;;;;;;;;;;;;17.94;57.02;100594.47;4998570;28;1284;-51
2022/08/09 10:32:55;;;;;;;;;;;;;;;17.97;56.94;100596.63;4993270;28;959;-50
2022/08/09 10:35:20;;;;;;;;;;;;;;;17.98;56.73;100595.53;4993536;28;2089;-52
2022/08/09 10:37:46;;;;;;;;;;;;;;;17.99;56.83;100594.41;4992766;28;1902;-51
2022/08/09 10:40:11;;;;;;;;;;;;;;;17.96;57.08;100603.22;5008243;28;1218;-52
2022/08/09 10:42:37;;;;;;;;;;;;;;;18.01;57.05;100611.44;5012491;28;1132;-53
2022/08/09 10:45:04;;;;;;;;;;;;;;;18.03;56.86;100602.91;4994365;28;1106;-47
2022/08/09 10:47:38;;;;;;;;;;;;;;;18.01;56.82;100600.44;4984989;28;1070;-53
2022/08/09 10:50:05;;;;;;;;;;;;;;;18.02;56.93;100593.84;4999361;28;1192;-57
2022/08/09 10:52:43;;;;;;;;;;;;;;;18.05;56.88;100590.50;4993050;28;1160;-54
2022/08/09 10:55:21;;;;;;;;;;;;;;;18.03;56.96;100598.22;4997364;28;1316;-51
2022/08/09 10:57:46;;;;;;;;;;;;;;;18.02;56.85;100584.75;4987847;28;1992;-52
2022/08/09 11:00:30;;;;;;;;;;;;;;;18.03;56.84;100587.22;4988615;28;1173;-54
2022/08/09 11:02:56;;;;;;;;;;;;;;;18.01;56.85;100577.63;4993028;28;1062;-50
2022/08/09 11:05:21;;;;;;;;;;;;;;;18.08;56.71;100583.63;4987680;28;2467;-53
2022/08/09 11:07:50;;;;;;;;;;;;;;;18.07;56.86;100585.53;4988726;28;1007;-52
2022/08/09 11:10:34;;;;;;;;;;;;;;;18.07;57.07;100577.28;4982877;28;1259;-52
2022/08/09 11:13:26;;;;;;;;;;;;;;;18.10;57.02;100587.72;4982868;28;1034;-55
2022/08/09 11:15:54;;;;;;;;;;;;;;;18.13;57.01;100581.63;4984954;28;1595;-52
2022/08/09 11:18:40;;;;;;;;;;;;;;;18.12;56.96;100571.72;4997064;28;1968;-50
2022/08/09 11:21:05;;;;;;;;;;;;;;;18.16;56.99;100579.41;4987828;28;967;-52
2022/08/09 11:23:41;;;;;;;;;;;;;;;18.12;57.09;100587.44;5009357;28;1050;-54
2022/08/09 11:26:06;;;;;;;;;;;;;;;18.13;57.10;100578.88;4996950;28;924;-52
2022/08/09 11:28:33;;;;;;;;;;;;;;;18.15;57.13;100573.09;4990757;28;1264;-54
2022/08/09 11:31:02;;;;;;;;;;;;;;;18.15;57.26;100567.59;4995994;28;1145;-52
2022/08/09 11:33:47;;;;;;;;;;;;;;;18.18;57.21;100577.19;4993288;28;1078;-50
2022/08/09 11:36:12;;;;;;;;;;;;;;;18.22;57.14;100578.28;4996171;28;2734;-53
2022/08/09 11:38:38;;;;;;;;;;;;;;;18.13;57.34;100576.13;5013066;28;1977;-50
2022/08/09 11:41:10;;;;;;;;;;;;;;;18.22;57.11;100583.78;4997485;28;1132;-55
2022/08/09 11:43:39;;;;;;;;;;;;;;;18.16;57.48;100584.91;4986036;28;1018;-51
2022/08/09 11:46:04;;;;;;;;;;;;;;;18.16;57.33;100580.25;4986759;28;1058;-52
2022/08/09 11:48:31;;;;;;;;;;;;;;;18.20;57.36;100574.97;4985305;28;1204;-54
2022/08/09 11:50:56;;;;;;;;;;;;;;;18.22;57.16;100567.25;4991595;28;1070;-54
2022/08/09 11:53:22;;;;;;;;;;;;;;;18.21;56.81;100568.34;4995409;28;975;-51
2022/08/09 11:55:48;;;;;;;;;;;;;;;18.18;56.98;100566.19;4996392;28;1212;-53
2022/08/09 11:58:13;;;;;;;;;;;;;;;18.19;57.18;100573.31;4995396;28;1913;-52
2022/08/09 12:00:48;;;;;;;;;;;;;;;18.20;57.15;100566.72;4990065;28;1070;-54
2022/08/09 12:03:16;;;;;;;;;;;;;;;18.18;57.39;100577.19;4989251;28;1138;-54
2022/08/09 12:05:42;;;;;;;;;;;;;;;18.17;57.08;100564.53;4996026;28;2739;-55
2022/08/09 12:08:08;;;;;;;;;;;;;;;18.13;57.15;100559.63;4992288;28;999;-53
2022/08/09 12:10:34;;;;;;;;;;;;;;;18.19;56.99;100557.66;4984736;28;1169;-53
2022/08/09 12:12:59;;;;;;;;;;;;;;;18.16;57.05;100549.13;4992151;28;967;-58
2022/08/09 12:15:25;;;;;;;;;;;;;;;18.20;57.06;100561.22;4994035;28;1051;-54
2022/08/09 12:17:51;;;;;;;;;;;;;;;18.20;57.31;100555.69;4995495;28;1906;-55
2022/08/09 12:20:17;;;;;;;;;;;;;;;18.18;57.19;100552.44;4992402;28;1018;-53
2022/08/09 12:22:43;;;;;;;;;;;;;;;18.21;57.11;100544.41;4994201;28;1030;-51
2022/08/09 12:25:11;;;;;;;;;;;;;;;18.25;57.20;100548.22;5006918;28;1028;-50
2022/08/09 12:27:37;;;;;;;;;;;;;;;18.23;57.02;100557.88;4987755;28;1062;-54
2022/08/09 12:30:02;;;;;;;;;;;;;;;18.19;57.42;100541.13;4997446;28;1002;-50
2022/08/09 12:32:28;;;;;;;;;;;;;;;18.20;57.27;100558.44;4994539;28;1367;-48
2022/08/09 12:34:58;;;;;;;;;;;;;;;18.18;57.45;100531.22;4996882;28;2321;-53
2022/08/09 12:37:33;;;;;;;;;;;;;;;18.23;57.39;100546.84;4991578;28;1977;-53
2022/08/09 12:40:00;;;;;;;;;;;;;;;18.24;57.29;100548.50;4991076;28;1249;-54
2022/08/09 12:42:25;;;;;;;;;;;;;;;18.22;57.35;100550.75;4990760;28;1015;-52
2022/08/09 12:44:51;;;;;;;;;;;;;;;18.24;57.27;100552.09;4983865;28;939;-53